createdAt,value
2018-05-13T00:00:54.330Z,69.70
2018-05-13T00:03:22.852Z,69.90
2018-05-13T00:05:50.596Z,69.90
2018-05-13T00:08:18.365Z,70.00
2018-05-13T00:10:46.142Z,69.80
2018-05-13T00:13:14.297Z,70.20
2018-05-13T00:15:42.034Z,70.40
2018-05-13T00:18:10.576Z,70.60
2018-05-13T00:20:38.384Z,70.60
2018-05-13T00:23:06.191Z,70.50
2018-05-13T00:25:34.087Z,70.80
2018-05-13T00:28:01.820Z,70.90
2018-05-13T00:30:29.583Z,71.50
2018-05-13T00:32:57.478Z,71.90
2018-05-13T00:35:25.186Z,71.90
2018-05-13T00:37:53.682Z,71.90
2018-05-13T00:40:21.461Z,71.90
2018-05-13T00:42:49.417Z,72.00
2018-05-13T00:45:17.743Z,71.80
2018-05-13T00:47:45.473Z,71.80
2018-05-13T00:50:13.204Z,71.90
2018-05-13T00:52:43.623Z,72.30
2018-05-13T00:55:11.448Z,72.30
2018-05-13T00:57:39.249Z,72.60
2018-05-13T01:00:07.864Z,72.30
2018-05-13T01:02:35.639Z,72.40
2018-05-13T01:05:03.423Z,72.60
2018-05-13T01:07:31.357Z,72.90
2018-05-13T01:09:59.094Z,73.10
2018-05-13T01:12:27.607Z,74.00
2018-05-13T01:14:55.462Z,73.30
2018-05-13T01:17:23.252Z,73.10
2018-05-13T01:19:51.179Z,73.10
2018-05-13T01:22:18.924Z,73.00
2018-05-13T01:24:47.439Z,72.90
2018-05-13T01:27:15.284Z,72.80
2018-05-13T01:29:43.807Z,73.50
2018-05-13T01:32:11.695Z,73.40
2018-05-13T01:34:39.374Z,73.50
2018-05-13T01:37:07.103Z,73.60
2018-05-13T01:39:34.898Z,73.90
2018-05-13T01:42:02.648Z,74.00
2018-05-13T01:44:30.402Z,74.20
2018-05-13T01:46:58.172Z,74.50
2018-05-13T01:49:26.064Z,74.50
2018-05-13T01:51:53.829Z,74.80
2018-05-13T01:54:21.588Z,75.40
2018-05-13T01:56:50.243Z,74.50
2018-05-13T01:59:17.987Z,74.30
2018-05-13T02:01:45.750Z,74.40
2018-05-13T02:04:13.519Z,74.20
2018-05-13T02:06:41.309Z,74.10
2018-05-13T02:09:09.116Z,74.10
2018-05-13T02:11:37.624Z,74.50
2018-05-13T02:14:05.484Z,74.40
2018-05-13T02:16:33.278Z,75.30
2018-05-13T02:19:01.024Z,74.70
2018-05-13T02:21:28.822Z,74.70
2018-05-13T02:23:56.622Z,74.50
2018-05-13T02:26:25.120Z,74.30
2018-05-13T02:28:52.946Z,74.20
2018-05-13T02:31:20.809Z,74.30
2018-05-13T02:33:48.698Z,74.50
2018-05-13T02:36:17.215Z,74.40
2018-05-13T02:38:44.954Z,74.40
2018-05-13T02:41:13.951Z,74.40
2018-05-13T02:43:42.468Z,74.40
2018-05-13T02:46:10.244Z,74.40
2018-05-13T02:48:38.034Z,74.50
2018-05-13T02:51:05.774Z,74.70
2018-05-13T02:53:33.595Z,74.70
2018-05-13T02:56:02.577Z,75.10
2018-05-13T02:58:31.079Z,75.20
2018-05-13T03:00:58.857Z,75.20
2018-05-13T03:03:26.670Z,75.10
2018-05-13T03:05:54.561Z,75.20
2018-05-13T03:08:23.073Z,75.40
2018-05-13T03:10:50.820Z,75.40
2018-05-13T03:13:18.577Z,75.80
2018-05-13T03:15:47.126Z,75.50
2018-05-13T03:18:14.917Z,75.50
2018-05-13T03:20:43.458Z,75.80
2018-05-13T03:23:11.237Z,75.90
2018-05-13T03:25:39.030Z,76.20
2018-05-13T03:28:07.589Z,76.40
2018-05-13T03:30:35.348Z,76.30
2018-05-13T03:33:03.837Z,76.30
2018-05-13T03:35:32.673Z,75.80
2018-05-13T03:38:01.198Z,76.60
2018-05-13T03:40:29.416Z,76.70
2018-05-13T03:42:57.946Z,76.80
2018-05-13T03:45:25.768Z,76.80
2018-05-13T03:47:54.597Z,76.30
2018-05-13T03:50:22.353Z,76.30
2018-05-13T03:52:50.381Z,76.60
2018-05-13T03:55:18.957Z,76.50
2018-05-13T03:57:46.728Z,76.50
2018-05-13T04:00:15.338Z,76.60
2018-05-13T04:02:43.073Z,76.60
2018-05-13T04:05:11.321Z,77.10
2018-05-13T04:10:51.663Z,76.70
2018-05-13T04:13:31.104Z,77.20
2018-05-13T04:15:58.894Z,77.00
2018-05-13T04:18:26.702Z,76.90
2018-05-13T04:20:55.218Z,76.60
2018-05-13T04:23:23.094Z,76.60
2018-05-13T04:25:50.841Z,77.20
2018-05-13T04:28:18.607Z,76.60
2018-05-13T04:30:46.425Z,76.50
2018-05-13T04:33:14.257Z,76.40
2018-05-13T04:35:42.034Z,76.00
2018-05-13T04:38:09.898Z,76.30
2018-05-13T04:40:37.834Z,75.40
2018-05-13T04:43:05.608Z,75.50
2018-05-13T04:45:33.347Z,74.20
2018-05-13T04:48:05.513Z,70.80
2018-05-13T04:50:34.032Z,70.50
2018-05-13T04:53:01.868Z,70.40
2018-05-13T04:55:30.486Z,68.90
2018-05-13T04:57:58.400Z,68.90
2018-05-13T05:00:26.904Z,66.70
2018-05-13T05:02:54.658Z,66.70
2018-05-13T05:05:30.511Z,65.80
2018-05-13T05:07:58.850Z,65.80
2018-05-13T05:10:27.490Z,71.10
2018-05-13T05:16:00.709Z,69.30
2018-05-13T05:21:41.054Z,69.10
2018-05-13T05:24:32.584Z,70.50
2018-05-13T05:27:20.851Z,71.70
2018-05-13T05:30:08.803Z,71.70
2018-05-13T05:35:50.550Z,69.30
2018-05-13T05:38:43.708Z,69.30
2018-05-13T05:41:33.142Z,69.30
2018-05-13T05:44:22.570Z,70.40
2018-05-13T05:47:12.694Z,70.50
2018-05-13T05:50:00.523Z,71.10
2018-05-13T05:52:51.053Z,70.60
2018-05-13T05:58:28.064Z,71.70
2018-05-13T06:00:56.460Z,74.80
2018-05-13T06:03:25.023Z,75.70
2018-05-13T06:05:53.226Z,76.50
2018-05-13T06:10:52.974Z,79.60
2018-05-13T06:13:21.075Z,80.90
2018-05-13T06:15:48.796Z,81.00
2018-05-13T06:18:16.543Z,81.60
2018-05-13T06:20:45.082Z,84.50
2018-05-13T06:23:12.923Z,84.50
2018-05-13T06:25:42.861Z,84.20
2018-05-13T06:28:10.647Z,82.60
2018-05-13T06:30:38.374Z,82.60
2018-05-13T06:33:06.209Z,83.00
2018-05-13T06:35:33.939Z,82.40
2018-05-13T06:38:02.854Z,83.70
2018-05-13T06:40:30.675Z,83.60
2018-05-13T06:42:58.411Z,83.20
2018-05-13T06:45:26.202Z,83.10
2018-05-13T06:47:53.975Z,84.00
2018-05-13T06:50:21.786Z,84.20
2018-05-13T06:52:49.527Z,84.70
2018-05-13T06:55:17.791Z,85.20
2018-05-13T06:57:47.831Z,85.50
2018-05-13T07:00:15.558Z,85.50
2018-05-13T07:02:44.197Z,85.20
2018-05-13T07:05:12.445Z,85.70
2018-05-13T07:07:40.218Z,85.00
2018-05-13T07:10:08.019Z,85.30
2018-05-13T07:12:35.814Z,84.70
2018-05-13T07:15:04.422Z,84.50
2018-05-13T07:17:32.183Z,84.50
2018-05-13T07:20:00.096Z,85.40
2018-05-13T07:22:27.890Z,85.20
2018-05-13T07:24:55.885Z,81.20
2018-05-13T07:27:24.111Z,82.00
2018-05-13T07:29:53.248Z,80.20
2018-05-13T07:32:21.939Z,81.40
2018-05-13T07:34:50.540Z,81.40
2018-05-13T07:37:19.133Z,80.70
2018-05-13T07:39:48.156Z,80.70
2018-05-13T07:42:15.953Z,81.50
2018-05-13T07:44:46.505Z,78.20
2018-05-13T07:47:15.119Z,78.40
2018-05-13T07:49:43.039Z,79.30
2018-05-13T07:52:11.240Z,82.00
2018-05-13T07:54:40.835Z,80.60
2018-05-13T07:57:09.058Z,80.60
2018-05-13T07:59:37.326Z,82.10
2018-05-13T08:02:05.895Z,79.20
2018-05-13T08:04:33.721Z,79.30
2018-05-13T08:07:01.512Z,80.10
2018-05-13T08:09:29.600Z,79.00
2018-05-13T08:11:57.365Z,80.70
2018-05-13T08:14:25.946Z,80.70
2018-05-13T08:16:57.295Z,80.10
2018-05-13T08:19:25.792Z,79.50
2018-05-13T08:21:53.614Z,78.50
2018-05-13T08:24:22.332Z,78.50
2018-05-13T08:26:50.258Z,80.20
2018-05-13T08:29:20.044Z,83.00
2018-05-13T08:31:48.448Z,81.80
2018-05-13T08:34:16.447Z,82.60
2018-05-13T08:36:44.391Z,82.40
2018-05-13T08:39:14.969Z,82.00
2018-05-13T08:41:42.747Z,78.80
2018-05-13T08:44:12.425Z,79.00
2018-05-13T08:46:41.580Z,78.70
2018-05-13T08:49:22.122Z,78.90
2018-05-13T08:51:55.925Z,78.70
2018-05-13T08:54:37.238Z,79.50
2018-05-13T08:57:28.477Z,79.90
2018-05-13T09:00:05.233Z,79.70
2018-05-13T09:02:34.611Z,79.70
2018-05-13T09:05:03.206Z,79.00
2018-05-13T09:07:40.330Z,79.00
2018-05-13T09:10:10.382Z,76.10
2018-05-13T09:12:38.714Z,78.10
2018-05-13T09:15:06.515Z,74.40
2018-05-13T09:17:35.237Z,72.00
2018-05-13T09:20:04.218Z,72.00
2018-05-13T09:22:31.962Z,71.40
2018-05-13T09:25:00.112Z,70.70
2018-05-13T09:27:28.618Z,69.00
2018-05-13T09:29:56.754Z,68.90
2018-05-13T09:32:24.530Z,66.70
2018-05-13T09:34:53.049Z,64.80
2018-05-13T09:37:22.693Z,64.80
2018-05-13T09:39:52.148Z,61.80
2018-05-13T09:42:19.951Z,66.90
2018-05-13T09:44:50.659Z,64.90
2018-05-13T09:47:19.326Z,65.80
2018-05-13T09:49:47.087Z,65.80
2018-05-13T09:52:14.882Z,64.40
2018-05-13T09:54:42.664Z,61.70
2018-05-13T09:57:11.185Z,62.90
2018-05-13T09:59:40.040Z,66.20
2018-05-13T10:02:07.795Z,66.20
2018-05-13T10:04:35.561Z,60.90
2018-05-13T10:07:03.322Z,61.80
2018-05-13T10:09:32.025Z,63.80
2018-05-13T10:12:00.584Z,59.40
2018-05-13T10:14:33.705Z,59.50
2018-05-13T10:17:12.763Z,61.40
2018-05-13T10:19:43.236Z,62.60
2018-05-13T10:22:13.005Z,61.20
2018-05-13T10:24:42.208Z,62.90
2018-05-13T10:27:10.333Z,59.70
2018-05-13T10:29:38.659Z,60.30
2018-05-13T10:32:08.067Z,62.00
2018-05-13T10:34:37.048Z,59.30
2018-05-13T10:37:05.525Z,59.30
2018-05-13T10:39:34.612Z,58.70
2018-05-13T10:42:03.025Z,60.90
2018-05-13T10:44:30.985Z,61.50
2018-05-13T10:46:59.275Z,60.70
2018-05-13T10:49:27.004Z,59.30
2018-05-13T10:51:54.770Z,58.00
2018-05-13T10:54:22.895Z,58.00
2018-05-13T10:56:50.755Z,59.80
2018-05-13T10:59:20.247Z,57.70
2018-05-13T11:01:49.217Z,55.60
2018-05-13T11:04:17.858Z,57.50
2018-05-13T11:06:45.618Z,58.20
2018-05-13T11:09:14.156Z,59.10
2018-05-13T11:11:41.935Z,59.10
2018-05-13T11:14:09.862Z,58.50
2018-05-13T11:16:37.595Z,55.30
2018-05-13T11:19:06.081Z,58.10
2018-05-13T11:21:34.606Z,57.20
2018-05-13T11:24:03.113Z,57.40
2018-05-13T11:26:30.925Z,56.20
2018-05-13T11:28:58.672Z,54.10
2018-05-13T11:31:27.807Z,52.40
2018-05-13T11:33:56.227Z,52.40
2018-05-13T11:36:24.024Z,51.10
2018-05-13T11:38:51.906Z,52.40
2018-05-13T11:41:20.617Z,50.80
2018-05-13T11:43:48.349Z,50.30
2018-05-13T11:46:16.154Z,51.50
2018-05-13T11:48:43.915Z,54.70
2018-05-13T11:51:12.015Z,51.90
2018-05-13T11:53:40.521Z,51.70
2018-05-13T11:56:08.269Z,51.70
2018-05-13T11:58:37.457Z,46.50
2018-05-13T12:01:06.007Z,51.60
2018-05-13T12:03:33.776Z,51.60
2018-05-13T12:06:01.527Z,51.90
2018-05-13T12:08:29.309Z,50.40
2018-05-13T12:10:57.120Z,50.70
2018-05-13T12:13:24.858Z,52.80
2018-05-13T12:15:53.398Z,51.30
2018-05-13T12:18:21.238Z,51.30
2018-05-13T12:20:48.989Z,47.20
2018-05-13T12:23:16.794Z,48.70
2018-05-13T12:25:44.631Z,45.10
2018-05-13T12:28:12.364Z,45.10
2018-05-13T12:30:40.306Z,46.60
2018-05-13T12:33:08.048Z,46.70
2018-05-13T12:35:35.815Z,47.70
2018-05-13T12:38:03.674Z,49.80
2018-05-13T12:40:31.420Z,48.70
2018-05-13T12:43:00.050Z,48.40
2018-05-13T12:45:31.460Z,48.20
2018-05-13T12:47:59.428Z,48.00
2018-05-13T12:50:27.165Z,47.80
2018-05-13T12:52:54.975Z,46.30
2018-05-13T12:55:22.753Z,48.00
2018-05-13T12:57:50.598Z,47.40
2018-05-13T13:00:18.383Z,48.00
2018-05-13T13:02:46.141Z,48.40
2018-05-13T13:05:13.957Z,47.30
2018-05-13T13:07:41.709Z,48.40
2018-05-13T13:10:09.468Z,47.10
2018-05-13T13:12:37.638Z,46.70
2018-05-13T13:15:05.457Z,46.20
2018-05-13T13:17:33.171Z,47.30
2018-05-13T13:20:01.026Z,48.40
2018-05-13T13:22:28.845Z,51.00
2018-05-13T13:24:56.591Z,51.30
2018-05-13T13:27:24.465Z,51.50
2018-05-13T13:29:52.200Z,51.10
2018-05-13T13:32:19.942Z,48.70
2018-05-13T13:34:47.747Z,49.10
2018-05-13T13:37:15.474Z,48.00
2018-05-13T13:39:43.201Z,48.20
2018-05-13T13:42:10.956Z,46.70
2018-05-13T13:44:38.688Z,48.20
2018-05-13T13:47:06.451Z,47.40
2018-05-13T13:49:34.211Z,48.40
2018-05-13T13:52:01.969Z,48.60
2018-05-13T13:54:29.741Z,50.40
2018-05-13T13:56:58.207Z,48.80
2018-05-13T13:59:26.067Z,49.80
2018-05-13T14:01:53.919Z,49.30
2018-05-13T14:04:21.640Z,48.80
2018-05-13T14:06:49.393Z,47.80
2018-05-13T14:09:17.541Z,49.70
2018-05-13T14:11:45.280Z,48.70
2018-05-13T14:14:13.761Z,48.00
2018-05-13T14:16:42.318Z,47.40
2018-05-13T14:19:10.045Z,47.40
2018-05-13T14:21:37.821Z,50.30
2018-05-13T14:24:05.599Z,51.40
2018-05-13T14:26:33.344Z,51.90
2018-05-13T14:29:01.111Z,52.90
2018-05-13T14:31:28.836Z,53.10
2018-05-13T14:33:56.975Z,54.90
2018-05-13T14:36:25.512Z,56.20
2018-05-13T14:38:53.238Z,56.20
2018-05-13T14:41:21.009Z,55.70
2018-05-13T14:43:48.772Z,56.10
2018-05-13T14:46:16.530Z,57.00
2018-05-13T14:48:44.292Z,56.20
2018-05-13T14:51:12.053Z,55.70
2018-05-13T14:53:40.308Z,55.80
2018-05-13T14:56:08.821Z,56.40
2018-05-13T14:58:36.590Z,56.30
2018-05-13T15:01:04.345Z,56.50
2018-05-13T15:03:32.081Z,57.70
2018-05-13T15:06:00.940Z,57.40
2018-05-13T15:08:28.680Z,57.30
2018-05-13T15:10:56.451Z,58.30
2018-05-13T15:13:24.216Z,58.60
2018-05-13T15:15:51.959Z,57.70
2018-05-13T15:18:19.725Z,59.00
2018-05-13T15:20:47.520Z,59.00
2018-05-13T15:23:15.484Z,60.50
2018-05-13T15:25:43.280Z,59.80
2018-05-13T15:28:11.784Z,60.50
2018-05-13T15:30:40.631Z,60.50
2018-05-13T15:33:10.840Z,59.20
2018-05-13T15:35:38.593Z,60.00
2018-05-13T15:38:06.983Z,59.90
2018-05-13T15:40:38.850Z,59.50
2018-05-13T15:43:07.335Z,61.50
2018-05-13T15:45:35.090Z,67.50
2018-05-13T15:48:02.860Z,68.70
2018-05-13T15:50:31.621Z,70.40
2018-05-13T15:52:59.605Z,70.50
2018-05-13T15:55:28.491Z,71.00
2018-05-13T15:57:56.643Z,72.20
2018-05-13T16:00:24.520Z,76.00
2018-05-13T16:02:52.361Z,79.10
2018-05-13T16:05:20.613Z,79.30
2018-05-13T16:07:49.119Z,79.40
2018-05-13T16:10:16.895Z,79.30
2018-05-13T16:12:44.707Z,80.50
2018-05-13T16:15:13.787Z,78.40
2018-05-13T16:17:41.534Z,78.40
2018-05-13T16:20:11.311Z,78.70
2018-05-13T16:22:39.605Z,78.70
2018-05-13T16:25:08.535Z,77.70
2018-05-13T16:27:36.319Z,78.20
2018-05-13T16:30:06.685Z,75.90
2018-05-13T16:32:34.669Z,75.70
2018-05-13T16:35:03.227Z,77.10
2018-05-13T16:37:39.564Z,78.20
2018-05-13T16:40:07.325Z,78.70
2018-05-13T16:42:35.092Z,80.40
2018-05-13T16:45:02.917Z,80.70
2018-05-13T16:47:30.669Z,81.90
2018-05-13T16:49:58.436Z,82.70
2018-05-13T16:52:26.577Z,81.90
2018-05-13T16:54:54.348Z,81.20
2018-05-13T16:57:22.130Z,80.10
2018-05-13T16:59:49.968Z,81.60
2018-05-13T17:02:17.755Z,83.70
2018-05-13T17:04:46.498Z,84.00
2018-05-13T17:07:15.946Z,83.50
2018-05-13T17:09:43.736Z,84.30
2018-05-13T17:12:11.494Z,84.70
2018-05-13T17:14:39.439Z,84.20
2018-05-13T17:17:08.050Z,83.50
2018-05-13T17:19:35.871Z,83.50
2018-05-13T17:22:04.900Z,84.50
2018-05-13T17:24:32.787Z,84.60
2018-05-13T17:27:02.203Z,84.00
2018-05-13T17:29:30.896Z,83.90
2018-05-13T17:32:00.372Z,82.50
2018-05-13T17:34:29.947Z,82.10
2018-05-13T17:36:57.955Z,82.10
2018-05-13T17:39:26.610Z,82.10
2018-05-13T17:41:54.314Z,82.00
2018-05-13T17:44:22.403Z,83.00
2018-05-13T17:46:50.150Z,82.00
2018-05-13T17:49:18.052Z,81.90
2018-05-13T17:51:46.316Z,81.70
2018-05-13T17:54:14.639Z,81.70
2018-05-13T17:56:43.229Z,81.90
2018-05-13T17:59:11.721Z,81.70
2018-05-13T18:01:40.280Z,81.80
2018-05-13T18:04:08.040Z,81.90
2018-05-13T18:06:35.816Z,83.00
2018-05-13T18:09:04.481Z,82.30
2018-05-13T18:11:32.682Z,82.00
2018-05-13T18:14:01.205Z,82.80
2018-05-13T18:16:28.983Z,82.90
2018-05-13T18:18:56.817Z,83.50
2018-05-13T18:21:24.561Z,83.30
2018-05-13T18:23:53.120Z,82.60
2018-05-13T18:26:20.879Z,82.50
2018-05-13T18:28:49.223Z,82.50
2018-05-13T18:31:17.772Z,82.60
2018-05-13T18:33:46.288Z,81.90
2018-05-13T18:36:14.733Z,81.90
2018-05-13T18:38:42.682Z,82.30
2018-05-13T18:41:11.407Z,82.60
2018-05-13T18:43:39.208Z,82.70
2018-05-13T18:46:07.271Z,82.70
2018-05-13T18:48:35.163Z,83.20
2018-05-13T18:51:02.952Z,82.70
2018-05-13T18:53:31.461Z,82.40
2018-05-13T18:55:59.322Z,82.40
2018-05-13T18:58:27.108Z,82.70
2018-05-13T19:00:55.343Z,82.90
2018-05-13T19:03:27.589Z,82.80
2018-05-13T19:05:57.277Z,83.20
2018-05-13T19:08:27.104Z,83.70
2018-05-13T19:10:56.816Z,82.70
2018-05-13T19:13:24.680Z,83.80
2018-05-13T19:15:52.424Z,83.80
2018-05-13T19:18:20.200Z,83.90
2018-05-13T19:20:48.014Z,83.90
2018-05-13T19:23:16.770Z,83.90
2018-05-13T19:25:45.464Z,83.60
2018-05-13T19:28:14.336Z,83.90
2018-05-13T19:30:42.075Z,83.90
2018-05-13T19:33:09.811Z,84.30
2018-05-13T19:35:37.580Z,84.30
2018-05-13T19:38:06.601Z,84.40
2018-05-13T19:40:35.360Z,84.60
2018-05-13T19:43:03.942Z,85.40
2018-05-13T19:45:32.008Z,85.30
2018-05-13T19:47:59.803Z,84.70
2018-05-13T19:50:28.465Z,84.50
2018-05-13T19:52:58.836Z,83.40
2018-05-13T19:55:27.474Z,83.40
2018-05-13T19:57:56.456Z,83.00
2018-05-13T20:00:25.276Z,83.20
2018-05-13T20:02:53.147Z,83.60
2018-05-13T20:05:21.819Z,82.80
2018-05-13T20:07:49.664Z,82.80
2018-05-13T20:10:18.248Z,83.50
2018-05-13T20:12:46.696Z,83.50
2018-05-13T20:15:14.519Z,84.10
2018-05-13T20:17:44.854Z,85.00
2018-05-13T20:20:13.510Z,85.30
2018-05-13T20:23:00.694Z,85.50
2018-05-13T20:25:30.434Z,85.50
2018-05-13T20:27:59.167Z,85.80
2018-05-13T20:30:27.954Z,85.20
2018-05-13T20:32:56.590Z,85.20
2018-05-13T20:35:28.302Z,85.40
2018-05-13T20:37:56.339Z,85.30
2018-05-13T20:40:24.097Z,85.40
2018-05-13T20:42:52.323Z,85.40
2018-05-13T20:45:20.132Z,85.10
2018-05-13T20:47:47.902Z,85.00
2018-05-13T20:50:15.695Z,85.50
2018-05-13T20:52:44.620Z,86.10
2018-05-13T20:55:13.682Z,86.10
2018-05-13T20:57:42.091Z,85.70
2018-05-13T21:00:09.910Z,86.30
2018-05-13T21:02:38.560Z,86.70
2018-05-13T21:05:06.384Z,85.70
2018-05-13T21:07:35.602Z,86.70
2018-05-13T21:10:04.193Z,87.00
2018-05-13T21:12:31.976Z,87.00
2018-05-13T21:14:59.728Z,87.10
2018-05-13T21:17:27.462Z,87.20
2018-05-13T21:19:56.122Z,87.20
2018-05-13T21:22:23.858Z,87.10
2018-05-13T21:24:51.589Z,86.60
2018-05-13T21:27:19.381Z,86.70
2018-05-13T21:29:47.283Z,87.00
2018-05-13T21:32:15.066Z,87.70
2018-05-13T21:34:43.584Z,87.70
2018-05-13T21:37:11.371Z,87.70
2018-05-13T21:39:39.171Z,88.10
2018-05-13T21:42:07.689Z,88.20
2018-05-13T21:44:36.633Z,88.30
2018-05-13T21:47:04.394Z,88.30
2018-05-13T21:49:32.129Z,88.30
2018-05-13T21:51:59.888Z,88.50
2018-05-13T21:54:28.084Z,88.40
2018-05-13T21:56:55.807Z,88.40
2018-05-13T21:59:23.541Z,88.00
2018-05-13T22:01:52.093Z,88.30
2018-05-13T22:04:19.842Z,88.20
2018-05-13T22:06:47.710Z,87.90
2018-05-13T22:09:15.449Z,87.80
2018-05-13T22:11:43.194Z,87.50
2018-05-13T22:14:11.734Z,88.20
2018-05-13T22:16:39.475Z,88.20
2018-05-13T22:19:07.265Z,88.00
2018-05-13T22:21:35.071Z,87.70
2018-05-13T22:24:02.887Z,88.30
2018-05-13T22:26:30.693Z,88.30
2018-05-13T22:28:59.232Z,88.00
2018-05-13T22:31:27.044Z,87.90
2018-05-13T22:33:55.558Z,88.60
2018-05-13T22:36:23.308Z,87.90
2018-05-13T22:38:51.080Z,87.80
2018-05-13T22:41:18.828Z,87.80
2018-05-13T22:43:46.661Z,87.80
2018-05-13T22:46:14.506Z,87.80
2018-05-13T22:48:42.286Z,88.00
2018-05-13T22:51:10.045Z,88.20
2018-05-13T22:53:37.869Z,88.10
2018-05-13T22:56:05.625Z,88.10
2018-05-13T22:58:33.360Z,87.70
2018-05-13T23:01:01.243Z,87.70
2018-05-13T23:03:29.749Z,87.60
2018-05-13T23:05:57.507Z,87.60
2018-05-13T23:08:25.371Z,87.80
2018-05-13T23:10:53.105Z,87.50
2018-05-13T23:13:20.852Z,87.60
2018-05-13T23:15:48.750Z,87.60
2018-05-13T23:18:17.244Z,87.00
2018-05-13T23:20:45.745Z,87.10
2018-05-13T23:23:13.520Z,87.10
2018-05-13T23:25:41.299Z,86.70
2018-05-13T23:28:09.037Z,86.80
2018-05-13T23:30:37.301Z,87.50
2018-05-13T23:33:05.804Z,86.80
2018-05-13T23:35:33.553Z,86.80
2018-05-13T23:38:01.338Z,86.70
2018-05-13T23:40:29.090Z,87.00
2018-05-13T23:42:57.038Z,86.80
2018-05-13T23:45:25.593Z,86.70
2018-05-13T23:47:53.456Z,86.70
2018-05-13T23:50:21.204Z,86.60
2018-05-13T23:52:48.984Z,86.40
2018-05-13T23:55:16.762Z,86.50
2018-05-13T23:57:44.612Z,86.90
